sensor_id;sensor_type;location;lat;lon;timestamp;pressure;altitude;pressure_sealevel;temperature;humidity
40155;BME280;25875;48.202;16.334;2023-02-03T00:00:30;99975.72;;;2.18;70.16
40155;BME280;25875;48.202;16.334;2023-02-03T00:02:58;99983.59;;;2.16;70.15
40155;BME280;25875;48.202;16.334;2023-02-03T00:05:25;99987.94;;;2.17;70.20
40155;BME280;25875;48.202;16.334;2023-02-03T00:07:52;99983.59;;;2.16;70.28
40155;BME280;25875;48.202;16.334;2023-02-03T00:10:19;99987.09;;;2.15;70.27
40155;BME280;25875;48.202;16.334;2023-02-03T00:12:47;99987.94;;;2.16;70.46
40155;BME280;25875;48.202;16.334;2023-02-03T00:15:14;99996.69;;;2.15;70.54
40155;BME280;25875;48.202;16.334;2023-02-03T00:17:41;99826.94;;;1.18;70.47
40155;BME280;25875;48.202;16.334;2023-02-03T00:20:10;100005.38;;;2.17;70.54
40155;BME280;25875;48.202;16.334;2023-02-03T00:22:37;100009.72;;;2.16;70.46
40155;BME280;25875;48.202;16.334;2023-02-03T00:25:04;100007.13;;;2.16;70.51
40155;BME280;25875;48.202;16.334;2023-02-03T00:27:31;100024.53;;;2.17;70.49
40155;BME280;25875;48.202;16.334;2023-02-03T00:29:58;100018.44;;;2.17;70.66
40155;BME280;25875;48.202;16.334;2023-02-03T00:32:25;100021.94;;;2.17;70.66
40155;BME280;25875;48.202;16.334;2023-02-03T00:34:52;100021.06;;;2.17;70.65
40155;BME280;25875;48.202;16.334;2023-02-03T00:37:20;100019.31;;;2.16;70.94
40155;BME280;25875;48.202;16.334;2023-02-03T00:39:47;100035.88;;;2.18;70.66
40155;BME280;25875;48.202;16.334;2023-02-03T00:42:14;100022.78;;;2.18;70.67
40155;BME280;25875;48.202;16.334;2023-02-03T00:44:41;100028.00;;;2.19;70.63
40155;BME280;25875;48.202;16.334;2023-02-03T00:47:08;100025.41;;;2.18;70.63
40155;BME280;25875;48.202;16.334;2023-02-03T00:49:35;100035.00;;;2.19;70.61
40155;BME280;25875;48.202;16.334;2023-02-03T00:52:02;100026.28;;;2.18;70.74
40155;BME280;25875;48.202;16.334;2023-02-03T00:54:30;100029.75;;;2.19;70.75
40155;BME280;25875;48.202;16.334;2023-02-03T00:56:57;100026.25;;;2.20;70.84
40155;BME280;25875;48.202;16.334;2023-02-03T00:59:24;100028.88;;;2.18;70.84
40155;BME280;25875;48.202;16.334;2023-02-03T01:01:50;100026.28;;;2.18;70.97
40155;BME280;25875;48.202;16.334;2023-02-03T01:04:17;100023.66;;;2.18;70.76
40155;BME280;25875;48.202;16.334;2023-02-03T01:06:44;100021.91;;;2.20;70.79
40155;BME280;25875;48.202;16.334;2023-02-03T01:09:11;100014.91;;;2.21;70.70
40155;BME280;25875;48.202;16.334;2023-02-03T01:11:39;99994.19;;;2.03;70.90
40155;BME280;25875;48.202;16.334;2023-02-03T01:14:06;100012.31;;;2.19;70.84
40155;BME280;25875;48.202;16.334;2023-02-03T01:16:33;100011.44;;;2.19;71.03
40155;BME280;25875;48.202;16.334;2023-02-03T01:19:02;100007.94;;;2.20;70.85
40155;BME280;25875;48.202;16.334;2023-02-03T01:21:29;99995.75;;;2.19;70.88
40155;BME280;25875;48.202;16.334;2023-02-03T01:23:57;100001.88;;;2.18;70.87
40155;BME280;25875;48.202;16.334;2023-02-03T01:26:25;99999.25;;;2.18;70.95
40155;BME280;25875;48.202;16.334;2023-02-03T01:28:55;99997.53;;;2.17;71.02
40155;BME280;25875;48.202;16.334;2023-02-03T01:31:24;99994.03;;;2.16;70.90
40155;BME280;25875;48.202;16.334;2023-02-03T01:33:52;99995.78;;;2.16;70.78
40155;BME280;25875;48.202;16.334;2023-02-03T01:36:20;99993.19;;;2.16;70.83
40155;BME280;25875;48.202;16.334;2023-02-03T01:38:47;99988.84;;;2.15;70.84
40155;BME280;25875;48.202;16.334;2023-02-03T01:41:16;99940.34;;;1.85;70.87
40155;BME280;25875;48.202;16.334;2023-02-03T01:43:46;99978.38;;;2.13;70.97
40155;BME280;25875;48.202;16.334;2023-02-03T01:46:23;99975.78;;;2.13;71.10
40155;BME280;25875;48.202;16.334;2023-02-03T01:48:52;99970.69;;;2.00;70.87
40155;BME280;25875;48.202;16.334;2023-02-03T01:51:21;99973.16;;;2.12;71.05
40155;BME280;25875;48.202;16.334;2023-02-03T01:53:50;99972.28;;;2.13;71.05
40155;BME280;25875;48.202;16.334;2023-02-03T01:56:18;99967.94;;;2.13;71.07
40155;BME280;25875;48.202;16.334;2023-02-03T01:58:45;99900.44;;;1.69;71.25
40155;BME280;25875;48.202;16.334;2023-02-03T02:01:14;99956.59;;;2.13;71.27
40155;BME280;25875;48.202;16.334;2023-02-03T02:03:46;99968.81;;;2.12;71.42
40155;BME280;25875;48.202;16.334;2023-02-03T02:06:14;99954.88;;;2.12;71.22
40155;BME280;25875;48.202;16.334;2023-02-03T02:08:44;99956.63;;;2.11;71.57
40155;BME280;25875;48.202;16.334;2023-02-03T02:11:12;99947.03;;;2.10;71.50
40155;BME280;25875;48.202;16.334;2023-02-03T02:13:39;99945.28;;;2.12;71.55
40155;BME280;25875;48.202;16.334;2023-02-03T02:16:11;99947.91;;;2.11;71.86
40155;BME280;25875;48.202;16.334;2023-02-03T02:18:56;99946.16;;;2.11;72.06
40155;BME280;25875;48.202;16.334;2023-02-03T02:21:43;99945.31;;;2.09;72.43
40155;BME280;25875;48.202;16.334;2023-02-03T02:30:37;99935.75;;;2.08;72.41
40155;BME280;25875;48.202;16.334;2023-02-03T02:33:13;99940.94;;;2.10;72.42
40155;BME280;25875;48.202;16.334;2023-02-03T02:35:51;99937.47;;;2.09;72.45
40155;BME280;25875;48.202;16.334;2023-02-03T02:38:33;99934.84;;;2.11;72.80
40155;BME280;25875;48.202;16.334;2023-02-03T02:41:06;99823.13;;;1.48;72.53
40155;BME280;25875;48.202;16.334;2023-02-03T02:43:40;99935.72;;;2.10;72.99
40155;BME280;25875;48.202;16.334;2023-02-03T02:46:10;99926.13;;;2.09;73.37
40155;BME280;25875;48.202;16.334;2023-02-03T02:48:43;99933.13;;;2.08;73.55
40155;BME280;25875;48.202;16.334;2023-02-03T02:51:14;99933.13;;;2.07;73.29
40155;BME280;25875;48.202;16.334;2023-02-03T02:53:45;99926.16;;;2.07;73.46
40155;BME280;25875;48.202;16.334;2023-02-03T02:56:15;99923.53;;;2.07;73.52
40155;BME280;25875;48.202;16.334;2023-02-03T02:58:46;99862.19;;;1.62;73.77
40155;BME280;25875;48.202;16.334;2023-02-03T03:01:14;99925.31;;;2.05;73.92
40155;BME280;25875;48.202;16.334;2023-02-03T03:03:44;99917.38;;;2.13;74.91
40155;BME280;25875;48.202;16.334;2023-02-03T03:06:14;99902.50;;;2.16;74.54
40155;BME280;25875;48.202;16.334;2023-02-03T03:08:46;99898.16;;;2.15;74.02
40155;BME280;25875;48.202;16.334;2023-02-03T03:11:16;99896.41;;;2.16;74.02
40155;BME280;25875;48.202;16.334;2023-02-03T03:13:48;99887.75;;;2.12;74.27
40155;BME280;25875;48.202;16.334;2023-02-03T03:16:17;99879.91;;;2.12;73.94
40155;BME280;25875;48.202;16.334;2023-02-03T03:18:50;99807.28;;;1.67;74.31
40155;BME280;25875;48.202;16.334;2023-02-03T03:21:21;99879.09;;;2.07;74.25
40155;BME280;25875;48.202;16.334;2023-02-03T03:23:51;99879.97;;;2.06;74.25
40155;BME280;25875;48.202;16.334;2023-02-03T03:26:23;99784.84;;;1.46;74.43
40155;BME280;25875;48.202;16.334;2023-02-03T03:28:59;99879.13;;;2.06;74.69
40155;BME280;25875;48.202;16.334;2023-02-03T03:31:29;99876.50;;;2.06;74.38
40155;BME280;25875;48.202;16.334;2023-02-03T03:33:57;99873.00;;;2.07;74.16
40155;BME280;25875;48.202;16.334;2023-02-03T03:36:26;99866.03;;;2.06;74.34
40155;BME280;25875;48.202;16.334;2023-02-03T03:39:01;99876.53;;;2.04;74.76
40155;BME280;25875;48.202;16.334;2023-02-03T03:41:37;99858.25;;;2.03;74.83
40155;BME280;25875;48.202;16.334;2023-02-03T03:44:10;99869.59;;;2.02;74.89
40155;BME280;25875;48.202;16.334;2023-02-03T03:46:43;99866.09;;;2.01;74.84
40155;BME280;25875;48.202;16.334;2023-02-03T03:49:14;99792.53;;;1.59;74.49
40155;BME280;25875;48.202;16.334;2023-02-03T03:51:46;99866.09;;;2.01;74.62
40155;BME280;25875;48.202;16.334;2023-02-03T03:54:17;99417.66;;;-0.65;74.45
40155;BME280;25875;48.202;16.334;2023-02-03T03:56:50;99877.47;;;1.99;74.91
40155;BME280;25875;48.202;16.334;2023-02-03T03:59:21;99885.25;;;2.02;75.06
40155;BME280;25875;48.202;16.334;2023-02-03T04:01:50;99884.38;;;2.03;74.69
40155;BME280;25875;48.202;16.334;2023-02-03T04:04:19;99815.19;;;1.59;74.67
40155;BME280;25875;48.202;16.334;2023-02-03T04:06:46;99888.75;;;2.01;74.86
40155;BME280;25875;48.202;16.334;2023-02-03T04:09:13;99876.53;;;2.03;74.78
40155;BME280;25875;48.202;16.334;2023-02-03T04:11:40;99855.63;;;2.03;75.02
40155;BME280;25875;48.202;16.334;2023-02-03T04:14:24;99839.97;;;2.00;75.09
40155;BME280;25875;48.202;16.334;2023-02-03T04:16:51;99819.22;;;1.87;75.21
40155;BME280;25875;48.202;16.334;2023-02-03T04:19:19;99846.06;;;2.00;75.42
40155;BME280;25875;48.202;16.334;2023-02-03T04:21:46;99846.91;;;2.02;75.27
40155;BME280;25875;48.202;16.334;2023-02-03T04:24:13;99849.53;;;2.02;75.40
40155;BME280;25875;48.202;16.334;2023-02-03T04:26:40;99828.63;;;2.01;75.52
40155;BME280;25875;48.202;16.334;2023-02-03T04:29:07;99832.97;;;2.02;75.46
40155;BME280;25875;48.202;16.334;2023-02-03T04:31:34;99778.44;;;1.76;75.23
40155;BME280;25875;48.202;16.334;2023-02-03T04:34:02;99823.34;;;2.05;75.71
40155;BME280;25875;48.202;16.334;2023-02-03T04:36:31;99829.47;;;2.04;75.48
40155;BME280;25875;48.202;16.334;2023-02-03T04:38:57;99822.47;;;2.05;75.55
40155;BME280;25875;48.202;16.334;2023-02-03T04:41:24;99821.63;;;2.04;75.81
40155;BME280;25875;48.202;16.334;2023-02-03T04:43:51;99808.53;;;2.06;75.65
40155;BME280;25875;48.202;16.334;2023-02-03T04:46:18;99811.13;;;2.06;75.89
40155;BME280;25875;48.202;16.334;2023-02-03T04:48:44;99812.84;;;2.08;75.75
40155;BME280;25875;48.202;16.334;2023-02-03T04:51:11;99796.28;;;2.09;75.98
40155;BME280;25875;48.202;16.334;2023-02-03T04:53:39;99791.91;;;2.10;75.97
40155;BME280;25875;48.202;16.334;2023-02-03T04:56:06;99794.53;;;2.08;76.13
40155;BME280;25875;48.202;16.334;2023-02-03T04:58:34;99788.41;;;2.11;76.41
40155;BME280;25875;48.202;16.334;2023-02-03T05:01:05;99791.88;;;2.11;76.68
40155;BME280;25875;48.202;16.334;2023-02-03T05:03:33;99784.88;;;2.13;76.45
40155;BME280;25875;48.202;16.334;2023-02-03T05:05:59;99784.88;;;2.15;76.54
40155;BME280;25875;48.202;16.334;2023-02-03T05:08:27;99792.69;;;2.16;76.60
40155;BME280;25875;48.202;16.334;2023-02-03T05:10:56;99788.28;;;2.18;76.34
40155;BME280;25875;48.202;16.334;2023-02-03T05:13:24;99781.31;;;2.19;76.50
40155;BME280;25875;48.202;16.334;2023-02-03T05:15:51;99769.94;;;2.21;76.60
40155;BME280;25875;48.202;16.334;2023-02-03T05:18:18;99765.59;;;2.22;76.86
40155;BME280;25875;48.202;16.334;2023-02-03T05:20:45;99769.88;;;2.26;76.85
40155;BME280;25875;48.202;16.334;2023-02-03T05:23:12;99768.13;;;2.27;76.82
40155;BME280;25875;48.202;16.334;2023-02-03T05:25:38;99765.50;;;2.28;76.79
40155;BME280;25875;48.202;16.334;2023-02-03T05:28:07;99755.91;;;2.29;77.26
40155;BME280;25875;48.202;16.334;2023-02-03T05:30:33;99760.19;;;2.33;76.63
40155;BME280;25875;48.202;16.334;2023-02-03T05:33:00;99761.03;;;2.35;77.43
40155;BME280;25875;48.202;16.334;2023-02-03T05:35:27;99757.50;;;2.37;76.99
40155;BME280;25875;48.202;16.334;2023-02-03T05:37:53;99748.75;;;2.40;76.83
40155;BME280;25875;48.202;16.334;2023-02-03T05:40:20;99738.25;;;2.41;76.75
40155;BME280;25875;48.202;16.334;2023-02-03T05:43:04;99734.75;;;2.42;76.92
40155;BME280;25875;48.202;16.334;2023-02-03T05:45:33;99716.41;;;2.44;76.98
40155;BME280;25875;48.202;16.334;2023-02-03T05:48:00;99713.75;;;2.47;76.98
40155;BME280;25875;48.202;16.334;2023-02-03T05:50:28;99733.78;;;2.48;77.04
40155;BME280;25875;48.202;16.334;2023-02-03T05:52:57;99713.69;;;2.50;76.92
40155;BME280;25875;48.202;16.334;2023-02-03T05:55:24;99648.16;;;2.07;77.02
40155;BME280;25875;48.202;16.334;2023-02-03T05:57:51;99722.31;;;2.55;77.18
40155;BME280;25875;48.202;16.334;2023-02-03T06:00:19;99714.44;;;2.57;77.31
40155;BME280;25875;48.202;16.334;2023-02-03T06:02:51;99703.09;;;2.58;77.25
40155;BME280;25875;48.202;16.334;2023-02-03T06:05:18;99710.03;;;2.60;77.07
40155;BME280;25875;48.202;16.334;2023-02-03T06:07:45;99702.16;;;2.62;76.84
40155;BME280;25875;48.202;16.334;2023-02-03T06:10:12;99711.72;;;2.63;77.00
40155;BME280;25875;48.202;16.334;2023-02-03T06:12:38;99701.25;;;2.64;76.95
40155;BME280;25875;48.202;16.334;2023-02-03T06:15:06;99694.22;;;2.66;77.00
40155;BME280;25875;48.202;16.334;2023-02-03T06:17:33;99689.81;;;2.68;77.03
40155;BME280;25875;48.202;16.334;2023-02-03T06:20:02;99685.44;;;2.70;77.43
40155;BME280;25875;48.202;16.334;2023-02-03T06:22:28;99663.00;;;2.55;77.04
40155;BME280;25875;48.202;16.334;2023-02-03T06:24:55;99681.03;;;2.72;77.17
40155;BME280;25875;48.202;16.334;2023-02-03T06:27:22;99684.47;;;2.74;77.18
40155;BME280;25875;48.202;16.334;2023-02-03T06:29:49;99681.84;;;2.76;77.24
40155;BME280;25875;48.202;16.334;2023-02-03T06:32:16;99671.34;;;2.77;77.10
40155;BME280;25875;48.202;16.334;2023-02-03T06:34:42;99679.16;;;2.79;77.17
40155;BME280;25875;48.202;16.334;2023-02-03T06:37:11;99666.34;;;2.64;77.43
40155;BME280;25875;48.202;16.334;2023-02-03T06:39:37;99675.63;;;2.81;77.24
40155;BME280;25875;48.202;16.334;2023-02-03T06:42:04;99670.31;;;2.84;77.15
40155;BME280;25875;48.202;16.334;2023-02-03T06:44:31;99673.81;;;2.85;77.15
40155;BME280;25875;48.202;16.334;2023-02-03T06:46:58;99687.72;;;2.87;77.46
40155;BME280;25875;48.202;16.334;2023-02-03T06:49:26;99674.63;;;2.88;77.05
40155;BME280;25875;48.202;16.334;2023-02-03T06:51:53;99675.41;;;2.92;76.95
40155;BME280;25875;48.202;16.334;2023-02-03T06:54:21;99659.69;;;2.94;77.01
40155;BME280;25875;48.202;16.334;2023-02-03T06:56:48;99667.50;;;2.95;77.22
40155;BME280;25875;48.202;16.334;2023-02-03T06:59:15;99673.56;;;2.97;77.21
40155;BME280;25875;48.202;16.334;2023-02-03T07:01:41;99676.13;;;3.00;76.87
40155;BME280;25875;48.202;16.334;2023-02-03T07:04:08;99667.34;;;3.03;77.11
40155;BME280;25875;48.202;16.334;2023-02-03T07:06:35;99653.34;;;3.05;77.03
40155;BME280;25875;48.202;16.334;2023-02-03T07:09:04;99669.03;;;3.07;76.71
40155;BME280;25875;48.202;16.334;2023-02-03T07:11:32;99675.09;;;3.09;76.74
40155;BME280;25875;48.202;16.334;2023-02-03T07:13:59;99672.41;;;3.12;76.80
40155;BME280;25875;48.202;16.334;2023-02-03T07:16:26;99670.63;;;3.14;76.83
40155;BME280;25875;48.202;16.334;2023-02-03T07:18:53;99668.84;;;3.16;76.88
40155;BME280;25875;48.202;16.334;2023-02-03T07:21:20;99669.66;;;3.18;77.24
40155;BME280;25875;48.202;16.334;2023-02-03T07:23:47;99653.84;;;3.23;77.18
40155;BME280;25875;48.202;16.334;2023-02-03T07:26:14;99659.06;;;3.24;77.43
40155;BME280;25875;48.202;16.334;2023-02-03T07:28:44;99673.84;;;3.27;77.43
40155;BME280;25875;48.202;16.334;2023-02-03T07:31:11;99673.75;;;3.31;77.20
40155;BME280;25875;48.202;16.334;2023-02-03T07:33:38;99653.63;;;3.33;77.34
40155;BME280;25875;48.202;16.334;2023-02-03T07:36:06;99650.06;;;3.37;77.02
40155;BME280;25875;48.202;16.334;2023-02-03T07:38:33;99639.50;;;3.40;77.02
40155;BME280;25875;48.202;16.334;2023-02-03T07:41:00;99638.66;;;3.40;77.26
40155;BME280;25875;48.202;16.334;2023-02-03T07:43:26;99642.97;;;3.42;77.44
40155;BME280;25875;48.202;16.334;2023-02-03T07:45:54;99625.44;;;3.44;77.25
40155;BME280;25875;48.202;16.334;2023-02-03T07:48:21;99619.31;;;3.45;77.46
40155;BME280;25875;48.202;16.334;2023-02-03T07:50:48;99645.44;;;3.48;77.16
40155;BME280;25875;48.202;16.334;2023-02-03T07:53:17;99624.41;;;3.51;77.13
40155;BME280;25875;48.202;16.334;2023-02-03T07:55:44;99647.13;;;3.51;77.04
40155;BME280;25875;48.202;16.334;2023-02-03T07:58:10;99654.06;;;3.53;77.25
40155;BME280;25875;48.202;16.334;2023-02-03T08:00:37;99621.69;;;3.56;77.10
40155;BME280;25875;48.202;16.334;2023-02-03T08:03:05;99641.69;;;3.60;76.67
40155;BME280;25875;48.202;16.334;2023-02-03T08:05:32;99191.16;;;1.01;76.64
40155;BME280;25875;48.202;16.334;2023-02-03T08:07:59;99639.84;;;3.65;76.90
40155;BME280;25875;48.202;16.334;2023-02-03T08:10:25;99631.03;;;3.68;77.02
40155;BME280;25875;48.202;16.334;2023-02-03T08:12:52;99623.97;;;3.71;76.62
40155;BME280;25875;48.202;16.334;2023-02-03T08:15:19;99611.69;;;3.73;77.35
40155;BME280;25875;48.202;16.334;2023-02-03T08:17:47;99604.59;;;3.77;76.85
40155;BME280;25875;48.202;16.334;2023-02-03T08:20:16;99607.16;;;3.80;76.79
40155;BME280;25875;48.202;16.334;2023-02-03T08:22:44;99604.47;;;3.83;76.83
40155;BME280;25875;48.202;16.334;2023-02-03T08:25:11;99480.22;;;3.17;76.53
40155;BME280;25875;48.202;16.334;2023-02-03T08:27:39;99585.06;;;3.90;76.34
40155;BME280;25875;48.202;16.334;2023-02-03T08:30:08;99571.88;;;3.93;76.59
40155;BME280;25875;48.202;16.334;2023-02-03T08:32:35;99561.31;;;3.96;76.12
40155;BME280;25875;48.202;16.334;2023-02-03T08:35:02;99562.16;;;3.97;76.02
40155;BME280;25875;48.202;16.334;2023-02-03T08:37:30;99541.47;;;3.86;75.80
40155;BME280;25875;48.202;16.334;2023-02-03T08:39:58;99568.19;;;4.00;75.91
40155;BME280;25875;48.202;16.334;2023-02-03T08:42:25;99558.53;;;4.02;75.74
40155;BME280;25875;48.202;16.334;2023-02-03T08:44:52;99565.47;;;4.05;75.58
40155;BME280;25875;48.202;16.334;2023-02-03T08:47:19;99570.66;;;4.06;75.48
40155;BME280;25875;48.202;16.334;2023-02-03T08:49:46;99572.34;;;4.09;75.29
40155;BME280;25875;48.202;16.334;2023-02-03T08:52:13;99557.41;;;4.12;75.16
40155;BME280;25875;48.202;16.334;2023-02-03T08:54:42;99549.53;;;4.12;74.98
40155;BME280;25875;48.202;16.334;2023-02-03T08:57:09;99545.03;;;4.17;75.00
40155;BME280;25875;48.202;16.334;2023-02-03T08:59:37;99544.13;;;4.20;74.78
40155;BME280;25875;48.202;16.334;2023-02-03T09:02:05;99530.09;;;4.21;74.63
40155;BME280;25875;48.202;16.334;2023-02-03T09:04:33;99544.00;;;4.25;74.33
40155;BME280;25875;48.202;16.334;2023-02-03T09:07:00;99516.81;;;4.27;74.36
40155;BME280;25875;48.202;16.334;2023-02-03T09:09:28;99529.88;;;4.29;74.18
40155;BME280;25875;48.202;16.334;2023-02-03T09:11:57;99508.78;;;4.33;74.27
40155;BME280;25875;48.202;16.334;2023-02-03T09:14:27;99515.69;;;4.36;74.01
40155;BME280;25875;48.202;16.334;2023-02-03T09:16:54;99514.72;;;4.40;73.68
40155;BME280;25875;48.202;16.334;2023-02-03T09:19:21;99501.94;;;4.28;73.44
40155;BME280;25875;48.202;16.334;2023-02-03T09:21:48;99509.22;;;4.49;73.16
40155;BME280;25875;48.202;16.334;2023-02-03T09:24:15;99260.78;;;2.98;72.74
40155;BME280;25875;48.202;16.334;2023-02-03T09:26:42;99506.47;;;4.54;72.64
40155;BME280;25875;48.202;16.334;2023-02-03T09:29:11;99535.28;;;4.55;72.15
40155;BME280;25875;48.202;16.334;2023-02-03T09:31:37;99481.78;;;4.59;72.09
40155;BME280;25875;48.202;16.334;2023-02-03T09:34:04;99448.44;;;4.63;72.03
40155;BME280;25875;48.202;16.334;2023-02-03T09:36:31;99491.22;;;4.66;71.87
40155;BME280;25875;48.202;16.334;2023-02-03T09:38:58;99485.91;;;4.68;71.73
40155;BME280;25875;48.202;16.334;2023-02-03T09:41:39;99457.75;;;4.73;71.50
40155;BME280;25875;48.202;16.334;2023-02-03T09:44:13;99462.97;;;4.74;71.21
40155;BME280;25875;48.202;16.334;2023-02-03T09:46:45;99448.84;;;4.78;71.20
40155;BME280;25875;48.202;16.334;2023-02-03T09:49:17;99333.41;;;4.18;70.85
40155;BME280;25875;48.202;16.334;2023-02-03T09:51:51;99466.13;;;4.86;70.62
40155;BME280;25875;48.202;16.334;2023-02-03T09:54:25;99463.34;;;4.92;70.48
40155;BME280;25875;48.202;16.334;2023-02-03T09:56:53;99424.72;;;4.95;70.13
40155;BME280;25875;48.202;16.334;2023-02-03T09:59:21;99409.78;;;4.97;69.31
40155;BME280;25875;48.202;16.334;2023-02-03T10:01:54;99447.25;;;5.02;69.45
40155;BME280;25875;48.202;16.334;2023-02-03T10:04:28;99428.69;;;5.08;69.66
40155;BME280;25875;48.202;16.334;2023-02-03T10:07:04;99428.53;;;5.13;69.47
40155;BME280;25875;48.202;16.334;2023-02-03T10:09:45;99406.50;;;5.17;69.30
40155;BME280;25875;48.202;16.334;2023-02-03T10:12:47;99063.78;;;3.19;68.81
40155;BME280;25875;48.202;16.334;2023-02-03T10:15:50;99413.25;;;5.26;68.50
40155;BME280;25875;48.202;16.334;2023-02-03T10:18:20;99398.28;;;5.28;69.22
40155;BME280;25875;48.202;16.334;2023-02-03T10:20:51;99298.81;;;4.91;68.64
40155;BME280;25875;48.202;16.334;2023-02-03T10:23:23;99358.59;;;5.35;68.45
40155;BME280;25875;48.202;16.334;2023-02-03T10:25:53;99390.84;;;5.40;68.67
40155;BME280;25875;48.202;16.334;2023-02-03T10:28:23;99339.94;;;5.43;68.55
40155;BME280;25875;48.202;16.334;2023-02-03T10:30:55;99332.00;;;5.44;68.21
40155;BME280;25875;48.202;16.334;2023-02-03T10:33:24;99338.06;;;5.47;68.29
40155;BME280;25875;48.202;16.334;2023-02-03T10:35:53;99372.09;;;5.51;68.35
40155;BME280;25875;48.202;16.334;2023-02-03T10:38:37;99365.84;;;5.54;67.70
40155;BME280;25875;48.202;16.334;2023-02-03T10:41:07;99371.06;;;5.55;68.36
40155;BME280;25875;48.202;16.334;2023-02-03T10:43:34;99360.56;;;5.55;68.05
40155;BME280;25875;48.202;16.334;2023-02-03T10:46:18;99289.56;;;5.55;67.96
40155;BME280;25875;48.202;16.334;2023-02-03T10:48:46;99310.59;;;5.55;67.76
40155;BME280;25875;48.202;16.334;2023-02-03T10:51:20;99291.22;;;5.58;67.60
40155;BME280;25875;48.202;16.334;2023-02-03T10:53:47;99292.03;;;5.60;67.97
40155;BME280;25875;48.202;16.334;2023-02-03T10:56:19;99292.03;;;5.60;67.18
40155;BME280;25875;48.202;16.334;2023-02-03T10:58:49;99340.22;;;5.60;67.41
40155;BME280;25875;48.202;16.334;2023-02-03T11:01:19;99285.84;;;5.61;67.39
40155;BME280;25875;48.202;16.334;2023-02-03T11:03:56;99285.81;;;5.62;67.33
40155;BME280;25875;48.202;16.334;2023-02-03T11:06:24;99289.25;;;5.64;67.89
40155;BME280;25875;48.202;16.334;2023-02-03T11:08:51;99309.34;;;5.65;67.60
40155;BME280;25875;48.202;16.334;2023-02-03T11:11:22;99277.00;;;5.63;66.66
40155;BME280;25875;48.202;16.334;2023-02-03T11:14:10;99299.75;;;5.64;66.54
40155;BME280;25875;48.202;16.334;2023-02-03T11:16:39;99301.56;;;5.62;66.85
40155;BME280;25875;48.202;16.334;2023-02-03T11:19:13;99317.31;;;5.64;66.41
40155;BME280;25875;48.202;16.334;2023-02-03T11:21:43;99225.72;;;5.28;66.96
40155;BME280;25875;48.202;16.334;2023-02-03T11:24:17;99275.81;;;5.72;66.34
40155;BME280;25875;48.202;16.334;2023-02-03T11:26:48;99258.19;;;5.74;66.56
40155;BME280;25875;48.202;16.334;2023-02-03T11:29:21;99274.84;;;5.74;66.57
40155;BME280;25875;48.202;16.334;2023-02-03T11:31:53;99190.13;;;4.95;66.09
40155;BME280;25875;48.202;16.334;2023-02-03T11:34:22;99273.13;;;5.73;65.76
40155;BME280;25875;48.202;16.334;2023-02-03T11:36:50;99245.00;;;5.75;66.72
40155;BME280;25875;48.202;16.334;2023-02-03T11:39:22;99250.25;;;5.75;66.93
40155;BME280;25875;48.202;16.334;2023-02-03T11:41:49;99230.13;;;5.74;66.74
40155;BME280;25875;48.202;16.334;2023-02-03T11:44:19;99233.75;;;5.72;66.28
40155;BME280;25875;48.202;16.334;2023-02-03T11:46:48;99257.41;;;5.72;66.20
40155;BME280;25875;48.202;16.334;2023-02-03T11:52:35;99212.41;;;5.56;65.78
40155;BME280;25875;48.202;16.334;2023-02-03T11:55:16;99177.66;;;5.71;65.75
40155;BME280;25875;48.202;16.334;2023-02-03T11:57:52;99244.38;;;5.69;65.71
40155;BME280;25875;48.202;16.334;2023-02-03T12:00:33;99205.00;;;5.67;65.16
40155;BME280;25875;48.202;16.334;2023-02-03T12:03:38;99269.75;;;5.70;65.43
40155;BME280;25875;48.202;16.334;2023-02-03T12:06:17;99100.66;;;5.46;66.24
40155;BME280;25875;48.202;16.334;2023-02-03T12:09:02;99094.69;;;5.64;67.04
40155;BME280;25875;48.202;16.334;2023-02-03T12:11:43;99011.16;;;4.80;66.63
40155;BME280;25875;48.202;16.334;2023-02-03T12:14:26;99133.44;;;5.59;67.38
40155;BME280;25875;48.202;16.334;2023-02-03T12:17:22;99200.06;;;5.58;67.02
40155;BME280;25875;48.202;16.334;2023-02-03T12:20:04;99123.09;;;5.55;67.60
40155;BME280;25875;48.202;16.334;2023-02-03T12:22:36;99098.53;;;5.56;67.87
40155;BME280;25875;48.202;16.334;2023-02-03T12:25:28;99086.22;;;5.56;67.54
40155;BME280;25875;48.202;16.334;2023-02-03T12:28:04;99092.34;;;5.57;67.39
40155;BME280;25875;48.202;16.334;2023-02-03T12:30:38;99074.88;;;5.56;67.17
40155;BME280;25875;48.202;16.334;2023-02-03T12:33:14;98671.09;;;3.16;66.39
40155;BME280;25875;48.202;16.334;2023-02-03T12:35:46;99095.78;;;5.59;66.84
40155;BME280;25875;48.202;16.334;2023-02-03T12:38:22;99050.22;;;5.58;66.11
40155;BME280;25875;48.202;16.334;2023-02-03T12:40:58;99086.13;;;5.59;65.71
40155;BME280;25875;48.202;16.334;2023-02-03T12:43:32;99030.00;;;5.60;65.94
40155;BME280;25875;48.202;16.334;2023-02-03T12:46:05;99039.59;;;5.61;66.11
40155;BME280;25875;48.202;16.334;2023-02-03T12:48:45;99045.56;;;5.65;66.09
40155;BME280;25875;48.202;16.334;2023-02-03T12:51:17;99090.28;;;5.65;66.10
40155;BME280;25875;48.202;16.334;2023-02-03T12:53:52;99070.09;;;5.65;66.38
40155;BME280;25875;48.202;16.334;2023-02-03T12:56:26;98982.25;;;5.27;66.38
40155;BME280;25875;48.202;16.334;2023-02-03T12:59:01;99037.69;;;5.65;65.98
40155;BME280;25875;48.202;16.334;2023-02-03T13:01:34;99018.44;;;5.64;66.27
40155;BME280;25875;48.202;16.334;2023-02-03T13:04:07;98985.16;;;5.63;66.64
40155;BME280;25875;48.202;16.334;2023-02-03T13:06:41;99005.34;;;5.63;66.58
40155;BME280;25875;48.202;16.334;2023-02-03T13:09:22;99039.59;;;5.61;66.26
40155;BME280;25875;48.202;16.334;2023-02-03T13:11:56;98999.28;;;5.61;66.13
40155;BME280;25875;48.202;16.334;2023-02-03T13:14:28;98772.19;;;4.38;66.67
40155;BME280;25875;48.202;16.334;2023-02-03T13:17:00;99025.59;;;5.61;66.62
40155;BME280;25875;48.202;16.334;2023-02-03T13:19:39;99003.69;;;5.60;65.75
40155;BME280;25875;48.202;16.334;2023-02-03T13:22:10;98998.38;;;5.62;66.03
40155;BME280;25875;48.202;16.334;2023-02-03T13:24:38;98990.38;;;5.65;66.31